createdAt,value
2018-02-06T00:00:32.755Z,13.65
2018-02-06T00:03:01.539Z,13.13
2018-02-06T00:05:29.063Z,13.05
2018-02-06T00:07:56.621Z,13.70
2018-02-06T00:10:24.167Z,13.02
2018-02-06T00:12:51.705Z,13.27
2018-02-06T00:15:20.074Z,12.15
2018-02-06T00:17:47.677Z,12.52
2018-02-06T00:20:15.205Z,14.02
2018-02-06T00:22:50.979Z,12.60
2018-02-06T00:25:18.528Z,14.05
2018-02-06T00:27:46.807Z,12.20
2018-02-06T00:30:14.389Z,13.05
2018-02-06T00:32:41.945Z,14.10
2018-02-06T00:35:09.695Z,14.50
2018-02-06T00:37:37.733Z,13.18
2018-02-06T00:40:05.275Z,14.43
2018-02-06T00:42:32.822Z,13.70
2018-02-06T00:45:10.283Z,14.57
2018-02-06T00:47:39.090Z,13.70
2018-02-06T00:50:06.640Z,13.07
2018-02-06T00:52:34.190Z,14.05
2018-02-06T00:55:01.746Z,13.75
2018-02-06T00:57:29.280Z,14.70
2018-02-06T00:59:57.575Z,14.70
2018-02-06T01:02:25.102Z,14.68
2018-02-06T01:04:52.699Z,13.73
2018-02-06T01:07:20.230Z,14.05
2018-02-06T01:09:48.576Z,14.43
2018-02-06T01:12:16.206Z,13.75
2018-02-06T01:14:43.765Z,14.02
2018-02-06T01:17:11.283Z,13.65
2018-02-06T01:19:39.622Z,16.17
2018-02-06T01:22:07.148Z,13.80
2018-02-06T01:24:34.770Z,13.32
2018-02-06T01:27:02.295Z,14.63
2018-02-06T01:29:29.859Z,13.88
2018-02-06T01:31:57.434Z,15.18
2018-02-06T01:34:25.050Z,14.63
2018-02-06T01:36:52.559Z,14.63
2018-02-06T01:39:20.131Z,15.18
2018-02-06T01:41:47.691Z,14.35
2018-02-06T01:44:15.260Z,13.95
2018-02-06T01:46:43.534Z,13.10
2018-02-06T01:49:11.854Z,14.15
2018-02-06T01:51:39.400Z,13.70
2018-02-06T01:54:06.967Z,14.07
2018-02-06T01:56:34.485Z,14.15
2018-02-06T01:59:02.084Z,14.50
2018-02-06T02:01:29.640Z,13.45
2018-02-06T02:03:57.193Z,13.88
2018-02-06T02:06:24.832Z,15.15
2018-02-06T02:08:52.435Z,15.77
2018-02-06T02:11:19.982Z,13.23
2018-02-06T02:13:47.517Z,14.10
2018-02-06T02:16:15.799Z,13.77
2018-02-06T02:18:43.349Z,15.13
2018-02-06T02:21:11.647Z,14.80
2018-02-06T02:23:39.194Z,14.00
2018-02-06T02:26:07.470Z,13.68
2018-02-06T02:28:35.004Z,14.40
2018-02-06T02:31:02.596Z,13.75
2018-02-06T02:33:30.159Z,13.48
2018-02-06T02:35:57.712Z,11.85
2018-02-06T02:38:25.264Z,13.13
2018-02-06T02:40:53.530Z,14.25
2018-02-06T04:39:08.106Z,12.60
2018-02-06T04:41:35.762Z,13.48
2018-02-06T04:44:04.071Z,12.68
2018-02-06T04:46:31.623Z,13.07
2018-02-06T04:48:59.147Z,13.55
2018-02-06T04:51:26.802Z,13.18
2018-02-06T04:53:54.370Z,14.15
2018-02-06T04:56:22.956Z,14.07
2018-02-06T04:58:50.503Z,12.10
2018-02-06T05:01:18.068Z,14.18
2018-02-06T05:03:45.587Z,13.13
2018-02-06T05:06:13.193Z,12.25
2018-02-06T05:08:40.854Z,14.10
2018-02-06T05:11:08.528Z,12.98
2018-02-06T05:13:36.094Z,12.98
2018-02-06T05:16:03.664Z,11.95
2018-02-06T05:18:31.174Z,14.02
2018-02-06T05:20:58.722Z,13.10
2018-02-06T05:23:27.038Z,11.98
2018-02-06T05:25:54.683Z,13.77
2018-02-06T05:28:22.219Z,12.57
2018-02-06T05:30:50.502Z,12.50
2018-02-06T05:33:18.837Z,12.73
2018-02-06T05:35:46.450Z,13.90
2018-02-06T05:38:14.066Z,12.73
2018-02-06T05:40:41.699Z,12.80
2018-02-06T05:43:09.215Z,12.70
2018-02-06T05:45:37.517Z,14.50
2018-02-06T05:48:05.035Z,13.95
2018-02-06T05:50:32.561Z,13.95
2018-02-06T05:53:00.084Z,12.93
2018-02-06T05:55:27.641Z,13.60
2018-02-06T05:57:55.403Z,14.63
2018-02-06T06:00:23.750Z,14.30
2018-02-06T06:02:51.297Z,14.00
2018-02-06T06:05:18.900Z,15.25
2018-02-06T06:07:46.423Z,15.05
2018-02-06T06:10:13.975Z,13.80
2018-02-06T06:12:41.495Z,13.70
2018-02-06T06:15:09.046Z,16.95
2018-02-06T06:17:36.561Z,15.35
2018-02-06T06:20:04.893Z,15.05
2018-02-06T06:22:32.414Z,14.52
2018-02-06T06:25:00.825Z,15.77
2018-02-06T06:27:28.407Z,13.80
2018-02-06T06:29:55.952Z,15.63
2018-02-06T06:32:23.502Z,15.75
2018-02-06T06:34:51.072Z,14.20
2018-02-06T06:37:18.624Z,14.20
2018-02-06T06:39:46.181Z,14.27
2018-02-06T06:42:13.735Z,14.25
2018-02-06T06:44:41.264Z,14.18
2018-02-06T06:47:09.558Z,15.60
2018-02-06T06:49:37.101Z,15.05
2018-02-06T06:52:05.412Z,13.25
2018-02-06T06:54:32.953Z,16.83
2018-02-06T06:57:10.619Z,16.25
2018-02-06T06:59:38.179Z,15.40
2018-02-06T07:02:07.243Z,13.93
2018-02-06T07:04:35.619Z,14.05
2018-02-06T07:07:03.280Z,14.57
2018-02-06T07:09:30.870Z,14.10
2018-02-06T07:11:58.485Z,15.10
2018-02-06T07:14:26.102Z,16.33
2018-02-06T07:16:54.371Z,14.10
2018-02-06T07:19:22.003Z,14.13
2018-02-06T07:21:49.548Z,14.40
2018-02-06T07:24:17.090Z,14.95
2018-02-06T07:26:44.642Z,15.05
2018-02-06T07:29:12.179Z,14.13
2018-02-06T07:31:40.495Z,15.05
2018-02-06T07:34:08.045Z,14.00
2018-02-06T07:36:35.734Z,15.98
2018-02-06T07:39:03.272Z,15.90
2018-02-06T07:41:30.797Z,15.43
2018-02-06T07:43:59.103Z,15.23
2018-02-06T07:46:26.659Z,15.02
2018-02-06T07:48:54.210Z,14.00
2018-02-06T07:51:21.802Z,15.25
2018-02-06T07:53:49.351Z,16.95
2018-02-06T07:56:17.469Z,15.90
2018-02-06T07:58:45.066Z,14.87
2018-02-06T08:01:12.582Z,14.43
2018-02-06T08:03:40.194Z,15.48
2018-02-06T08:06:07.744Z,15.10
2018-02-06T08:08:35.264Z,15.25
2018-02-06T08:11:02.817Z,13.77
2018-02-06T08:13:30.343Z,15.07
2018-02-06T08:15:57.890Z,15.20
2018-02-06T08:18:25.459Z,15.27
2018-02-06T08:20:53.011Z,16.20
2018-02-06T08:23:20.523Z,16.40
2018-02-06T08:25:48.090Z,16.73
2018-02-06T08:28:15.614Z,13.82
2018-02-06T08:30:43.246Z,14.30
2018-02-06T08:33:10.777Z,15.23
2018-02-06T08:35:39.179Z,16.05
2018-02-06T08:38:06.698Z,15.77
2018-02-06T08:40:35.024Z,16.85
2018-02-06T08:43:02.564Z,16.30
2018-02-06T08:45:30.111Z,15.48
2018-02-06T08:47:58.409Z,16.98
2018-02-06T08:50:25.949Z,16.50
2018-02-06T08:52:54.255Z,16.90
2018-02-06T08:55:21.805Z,17.80
2018-02-06T08:57:49.314Z,17.10
2018-02-06T09:00:16.852Z,16.17
2018-02-06T09:02:44.471Z,15.90
2018-02-06T09:05:12.773Z,15.48
2018-02-06T09:07:40.278Z,16.58
2018-02-06T09:10:07.834Z,16.23
2018-02-06T09:12:36.186Z,15.93
2018-02-06T09:15:03.797Z,15.70
2018-02-06T09:17:32.597Z,15.15
2018-02-06T09:20:00.137Z,16.65
2018-02-06T09:22:28.441Z,15.07
2018-02-06T09:24:55.980Z,16.35
2018-02-06T09:27:24.282Z,17.62
2018-02-06T09:29:51.959Z,17.05
2018-02-06T09:32:19.471Z,17.02
2018-02-06T09:34:47.882Z,16.17
2018-02-06T09:37:15.398Z,16.67
2018-02-06T09:39:42.990Z,17.30
2018-02-06T09:42:11.250Z,16.42
2018-02-06T09:44:39.828Z,17.35
2018-02-06T09:47:07.375Z,16.98
2018-02-06T09:49:35.699Z,16.50
2018-02-06T09:52:03.192Z,16.37
2018-02-06T09:54:30.742Z,17.30
2018-02-06T09:56:58.283Z,16.77
2018-02-06T09:59:25.823Z,19.27
2018-02-06T10:01:53.497Z,19.92
2018-02-06T10:04:21.034Z,18.12
2018-02-06T10:06:48.642Z,16.90
2018-02-06T10:09:16.252Z,17.35
2018-02-06T10:11:44.559Z,18.25
2018-02-06T10:14:12.175Z,16.62
2018-02-06T10:16:39.746Z,17.30
2018-02-06T10:19:08.151Z,18.00
2018-02-06T10:21:35.701Z,18.33
2018-02-06T10:24:03.414Z,16.35
2018-02-06T10:26:30.897Z,16.70
2018-02-06T10:28:59.302Z,18.58
2018-02-06T10:31:26.811Z,19.20
2018-02-06T10:33:54.455Z,18.62
2018-02-06T10:36:21.970Z,19.00
2018-02-06T10:38:50.281Z,17.90
2018-02-06T10:41:17.821Z,19.20
2018-02-06T10:43:45.451Z,18.45
2018-02-06T10:46:13.751Z,18.17
2018-02-06T10:48:41.313Z,19.80
2018-02-06T10:51:08.879Z,19.70
2018-02-06T10:53:36.443Z,17.10
2018-02-06T10:56:03.948Z,17.45
2018-02-06T10:58:31.542Z,17.37
2018-02-06T11:00:59.105Z,17.65
2018-02-06T11:03:26.681Z,18.90
2018-02-06T11:05:54.252Z,18.95
2018-02-06T11:08:21.807Z,17.70
2018-02-06T11:10:49.342Z,18.25
2018-02-06T11:13:17.010Z,18.37
2018-02-06T11:15:44.653Z,18.55
2018-02-06T11:18:12.974Z,17.95
2018-02-06T11:20:40.496Z,18.50
2018-02-06T11:23:08.188Z,19.40
2018-02-06T11:25:35.702Z,17.50
2018-02-06T11:28:04.019Z,18.77
2018-02-06T11:30:31.523Z,17.52
2018-02-06T11:32:59.219Z,17.55
2018-02-06T11:35:27.532Z,18.95
2018-02-06T11:37:55.038Z,17.37
2018-02-06T11:40:23.355Z,18.70
2018-02-06T11:42:50.891Z,18.12
2018-02-06T11:45:18.465Z,19.15
2018-02-06T11:47:45.991Z,19.83
2018-02-06T11:50:14.288Z,18.30
2018-02-06T11:52:41.962Z,20.00
2018-02-06T11:55:09.816Z,19.75
2018-02-06T11:57:38.021Z,18.85
2018-02-06T12:00:05.597Z,19.08
2018-02-06T12:02:33.179Z,19.45
2018-02-06T12:05:00.700Z,18.37
2018-02-06T12:07:28.210Z,18.95
2018-02-06T12:09:56.492Z,19.27
2018-02-06T12:12:24.823Z,18.77
2018-02-06T12:14:52.391Z,19.42
2018-02-06T12:17:19.938Z,18.70
2018-02-06T12:19:47.464Z,18.65
2018-02-06T12:22:16.632Z,17.80
2018-02-06T12:24:44.265Z,19.77
2018-02-06T12:27:11.877Z,18.40
2018-02-06T12:29:39.420Z,19.87
2018-02-06T12:32:07.735Z,18.08
2018-02-06T12:34:35.314Z,18.35
2018-02-06T12:37:02.841Z,19.15
2018-02-06T12:39:30.462Z,20.73
2018-02-06T12:41:59.043Z,17.87
2018-02-06T12:44:26.566Z,18.48
2018-02-06T12:46:54.080Z,19.23
2018-02-06T12:49:22.412Z,19.33
2018-02-06T12:51:49.929Z,17.85
2018-02-06T12:54:17.475Z,18.45
2018-02-06T12:56:45.934Z,18.15
2018-02-06T12:59:13.455Z,19.27
2018-02-06T13:01:44.201Z,18.62
2018-02-06T13:04:11.814Z,19.05
2018-02-06T13:06:39.325Z,18.30
2018-02-06T13:09:06.899Z,17.85
2018-02-06T13:11:34.463Z,19.20
2018-02-06T13:14:02.069Z,19.02
2018-02-06T13:16:29.663Z,17.33
2018-02-06T13:18:57.226Z,17.65
2018-02-06T13:21:24.751Z,19.55
2018-02-06T13:23:52.283Z,18.73
2018-02-06T13:26:20.690Z,19.15
2018-02-06T13:28:48.308Z,20.52
2018-02-06T13:31:15.877Z,18.37
2018-02-06T13:33:44.263Z,19.50
2018-02-06T13:36:12.653Z,19.62
2018-02-06T13:38:40.126Z,18.08
2018-02-06T13:41:07.766Z,20.30
2018-02-06T13:43:35.418Z,19.83
2018-02-06T13:46:03.034Z,19.90
2018-02-06T13:48:30.663Z,19.35
2018-02-06T13:50:58.239Z,17.98
2018-02-06T13:53:25.783Z,20.30
2018-02-06T13:55:53.450Z,18.27
2018-02-06T13:58:20.967Z,21.05
2018-02-06T14:00:48.648Z,19.80
2018-02-06T14:03:16.939Z,20.62
2018-02-06T14:05:44.501Z,18.48
2018-02-06T14:08:12.116Z,20.20
2018-02-06T14:10:39.738Z,18.80
2018-02-06T14:13:07.448Z,21.27
2018-02-06T14:15:35.793Z,19.25
2018-02-06T14:18:03.331Z,19.90
2018-02-06T14:20:31.725Z,20.12
2018-02-06T14:22:59.326Z,19.00
2018-02-06T14:25:26.846Z,18.20
2018-02-06T14:27:54.387Z,19.62
2018-02-06T14:30:21.928Z,20.23
2018-02-06T14:32:50.419Z,19.65
2018-02-06T14:35:17.991Z,20.30
2018-02-06T14:37:45.515Z,22.30
2018-02-06T14:40:13.936Z,20.27
2018-02-06T14:42:41.460Z,19.23
2018-02-06T14:45:10.667Z,19.75
2018-02-06T14:47:39.081Z,21.40
2018-02-06T14:50:08.039Z,20.27
2018-02-06T14:52:35.835Z,20.12
2018-02-06T14:55:03.354Z,21.25
2018-02-06T14:57:31.500Z,22.75
2018-02-06T14:59:59.121Z,20.65
2018-02-06T15:02:26.647Z,21.27
2018-02-06T15:04:54.985Z,21.30
2018-02-06T15:07:22.809Z,20.48
2018-02-06T15:09:50.602Z,21.17
2018-02-06T15:12:18.240Z,21.25
2018-02-06T15:14:45.769Z,21.80
2018-02-06T15:17:14.128Z,23.12
2018-02-06T15:19:42.483Z,21.77
2018-02-06T15:22:10.140Z,21.98
2018-02-06T15:24:37.911Z,23.33
2018-02-06T15:27:05.495Z,22.55
2018-02-06T15:29:33.073Z,23.10
2018-02-06T15:32:01.377Z,23.80
2018-02-06T15:34:29.023Z,23.02
2018-02-06T15:36:56.582Z,23.25
2018-02-06T15:39:24.120Z,22.52
2018-02-06T15:41:52.460Z,22.80
2018-02-06T15:44:19.989Z,22.08
2018-02-06T15:46:47.551Z,24.30
2018-02-06T15:49:15.086Z,23.08
2018-02-06T15:51:43.406Z,23.70
2018-02-06T15:54:11.030Z,21.67
2018-02-06T15:56:38.587Z,24.50
2018-02-06T15:59:06.891Z,25.92
2018-02-06T16:01:34.471Z,26.85
2018-02-06T16:04:02.017Z,23.42
2018-02-06T16:06:29.664Z,22.52
2018-02-06T16:08:57.270Z,22.80
2018-02-06T16:11:24.801Z,23.60
2018-02-06T16:13:52.319Z,24.10
2018-02-06T16:16:20.629Z,25.00
2018-02-06T16:18:48.150Z,26.48
2018-02-06T16:21:16.490Z,25.35
2018-02-06T16:23:44.083Z,27.60
2018-02-06T16:26:13.471Z,25.55
2018-02-06T16:28:42.491Z,26.45
2018-02-06T16:31:10.803Z,23.45
2018-02-06T16:33:38.371Z,27.87
2018-02-06T16:36:05.912Z,25.50
2018-02-06T16:38:33.488Z,24.92
2018-02-06T16:41:01.025Z,27.67
2018-02-06T16:43:28.559Z,25.62
2018-02-06T16:45:56.907Z,26.30
2018-02-06T16:48:24.426Z,23.77
2018-02-06T16:50:52.043Z,26.20
2018-02-06T16:53:19.607Z,28.05
2018-02-06T16:55:47.899Z,25.83
2018-02-06T16:58:15.531Z,25.95
2018-02-06T17:00:43.063Z,26.65
2018-02-06T17:03:10.598Z,27.15
2018-02-06T17:05:39.454Z,26.65
2018-02-06T17:08:07.732Z,25.62
2018-02-06T17:10:36.063Z,27.90
2018-02-06T17:13:03.614Z,29.70
2018-02-06T17:15:31.263Z,29.45
2018-02-06T17:17:58.862Z,31.60
2018-02-06T17:20:26.402Z,30.48
2018-02-06T17:22:54.115Z,30.92
2018-02-06T17:25:22.443Z,26.92
2018-02-06T17:27:49.998Z,29.12
2018-02-06T17:30:18.695Z,29.92
2018-02-06T17:32:46.274Z,26.85
2018-02-06T17:35:15.086Z,29.08
2018-02-06T17:37:43.369Z,27.77
2018-02-06T17:40:11.691Z,26.95
2018-02-06T17:42:39.283Z,25.77
2018-02-06T17:45:06.881Z,28.20
2018-02-06T17:47:34.607Z,28.33
2018-02-06T17:50:02.210Z,25.55
2018-02-06T17:52:29.716Z,29.63
2018-02-06T17:54:57.487Z,32.30
2018-02-06T17:57:25.000Z,30.60
2018-02-06T17:59:52.549Z,30.25
2018-02-06T18:02:20.092Z,30.42
2018-02-06T18:04:48.581Z,29.83
2018-02-06T18:07:16.108Z,31.67
2018-02-06T18:09:43.666Z,30.15
2018-02-06T18:12:11.489Z,28.40
2018-02-06T18:14:39.114Z,29.25
2018-02-06T18:17:07.540Z,30.70
2018-02-06T18:19:35.208Z,34.50
2018-02-06T18:22:02.751Z,27.98
2018-02-06T18:24:30.345Z,32.30
2018-02-06T18:26:57.963Z,30.15
2018-02-06T18:29:25.536Z,30.95
2018-02-06T18:31:53.137Z,31.42
2018-02-06T18:34:20.727Z,28.12
2018-02-06T18:36:48.235Z,32.13
2018-02-06T18:39:15.821Z,30.15
2018-02-06T18:41:43.346Z,34.75
2018-02-06T18:44:11.046Z,27.25
2018-02-06T18:46:39.367Z,30.83
2018-02-06T18:49:06.941Z,32.35
2018-02-06T18:51:34.569Z,32.22
2018-02-06T18:54:02.136Z,32.35
2018-02-06T18:56:29.756Z,29.37
2018-02-06T18:58:57.303Z,29.48
2018-02-06T19:01:24.904Z,53.40
2018-02-06T19:03:52.550Z,32.33
2018-02-06T19:06:21.009Z,33.28
2018-02-06T19:08:48.794Z,33.67
2018-02-06T19:11:17.094Z,35.90
2018-02-06T19:13:46.064Z,36.08
2018-02-06T19:16:14.387Z,33.70
2018-02-06T19:18:41.975Z,32.58
2018-02-06T19:21:09.609Z,32.40
2018-02-06T19:23:37.164Z,34.42
2018-02-06T19:26:04.766Z,36.13
2018-02-06T19:28:32.292Z,32.70
2018-02-06T19:30:59.851Z,28.27
2018-02-06T19:33:27.542Z,35.22
2018-02-06T19:35:55.116Z,31.40
2018-02-06T19:38:23.498Z,32.70
2018-02-06T19:40:51.040Z,34.22
2018-02-06T19:43:18.582Z,30.45
2018-02-06T19:45:46.133Z,32.53
2018-02-06T19:48:13.696Z,32.13
2018-02-06T19:50:41.243Z,30.80
2018-02-06T19:53:08.766Z,30.50
2018-02-06T19:55:36.311Z,31.15
2018-02-06T19:58:04.603Z,31.98
2018-02-06T20:00:32.934Z,35.53
2018-02-06T20:03:00.564Z,37.95
2018-02-06T20:05:28.545Z,35.13
2018-02-06T20:07:56.128Z,34.05
2018-02-06T20:10:23.843Z,32.28
2018-02-06T20:12:51.379Z,36.80
2018-02-06T20:15:19.745Z,32.42
2018-02-06T20:17:47.285Z,36.15
2018-02-06T20:20:14.834Z,34.92
2018-02-06T20:22:42.372Z,33.63
2018-02-06T20:25:09.917Z,35.13
2018-02-06T20:27:38.081Z,37.00
2018-02-06T20:30:06.385Z,34.63
2018-02-06T20:32:33.910Z,34.58
2018-02-06T20:35:01.604Z,31.40
2018-02-06T20:37:29.157Z,34.97
2018-02-06T20:39:56.717Z,33.15
2018-02-06T20:42:24.266Z,34.45
2018-02-06T20:44:52.682Z,32.35
2018-02-06T20:47:20.208Z,34.30
2018-02-06T20:49:47.783Z,33.05
2018-02-06T20:52:25.260Z,35.00
2018-02-06T20:54:52.834Z,32.33
2018-02-06T20:57:20.411Z,29.55
2018-02-06T20:59:49.071Z,33.50
2018-02-06T21:02:16.603Z,34.90
2018-02-06T21:04:44.931Z,36.15
2018-02-06T21:07:12.466Z,33.10
2018-02-06T21:09:40.022Z,38.33
2018-02-06T21:12:07.592Z,34.55
2018-02-06T21:14:35.171Z,34.58
2018-02-06T21:17:03.618Z,33.88
2018-02-06T21:19:31.188Z,33.65
2018-02-06T21:21:58.720Z,34.10
2018-02-06T21:24:27.146Z,34.50
2018-02-06T21:26:55.440Z,35.42
2018-02-06T21:29:23.055Z,34.72
2018-02-06T21:31:50.671Z,35.90
2018-02-06T21:34:18.224Z,33.05
2018-02-06T21:36:45.739Z,31.92
2018-02-06T21:39:13.326Z,32.70
2018-02-06T21:41:40.844Z,31.30
2018-02-06T21:44:08.404Z,31.45
2018-02-06T21:46:36.555Z,34.03
2018-02-06T21:49:04.984Z,34.05
2018-02-06T21:51:32.560Z,31.50
2018-02-06T21:54:00.132Z,32.20
2018-02-06T21:56:27.655Z,33.80
2018-02-06T21:58:55.183Z,33.15
2018-02-06T22:01:22.727Z,31.45
2018-02-06T22:03:51.130Z,32.35
2018-02-06T22:06:18.660Z,33.90
2018-02-06T22:08:46.195Z,34.65
2018-02-06T22:11:13.794Z,33.05
2018-02-06T22:13:42.128Z,32.97
2018-02-06T22:16:09.662Z,33.10
2018-02-06T22:18:37.224Z,34.92
2018-02-06T22:21:04.825Z,32.00
2018-02-06T22:23:32.475Z,34.15
2018-02-06T22:26:00.155Z,32.10
2018-02-06T22:28:27.768Z,33.20
2018-02-06T22:30:55.294Z,33.97
2018-02-06T22:33:23.604Z,33.55
2018-02-06T22:35:51.163Z,33.88
2018-02-06T22:38:18.703Z,35.13
2018-02-06T22:40:46.250Z,31.02
2018-02-06T22:43:14.586Z,33.97
2018-02-06T22:45:42.102Z,34.00
2018-02-06T22:48:09.916Z,34.33
2018-02-06T22:50:37.523Z,32.78
2018-02-06T22:53:05.109Z,33.90
2018-02-06T22:55:32.817Z,34.00
2018-02-06T22:58:00.421Z,34.08
2018-02-06T23:00:27.929Z,34.65
2018-02-06T23:02:55.473Z,35.35
2018-02-06T23:05:23.026Z,34.20
2018-02-06T23:07:51.174Z,37.45
2018-02-06T23:10:18.696Z,35.08
2018-02-06T23:12:46.992Z,34.25
2018-02-06T23:15:14.559Z,34.97
2018-02-06T23:17:42.174Z,34.42
2018-02-06T23:20:09.772Z,35.95
2018-02-06T23:22:37.463Z,35.90
2018-02-06T23:25:05.064Z,34.80
2018-02-06T23:27:32.667Z,36.08
2018-02-06T23:30:00.185Z,34.45
2018-02-06T23:32:27.743Z,35.03
2018-02-06T23:34:55.278Z,37.17
2018-02-06T23:37:22.829Z,34.80
2018-02-06T23:39:50.365Z,34.60
2018-02-06T23:42:17.961Z,33.53
2018-02-06T23:44:45.540Z,34.63
2018-02-06T23:47:13.049Z,33.15
2018-02-06T23:49:41.240Z,31.23
2018-02-06T23:52:08.751Z,37.40
2018-02-06T23:54:37.066Z,37.50
2018-02-06T23:57:04.643Z,34.47
2018-02-06T23:59:32.230Z,31.40
